Tinker Air Force Base
KTIK : now visible

Airfield :











YOU CAN JOIN US ON...

 
LOGIN :

Register | Disclaimer

   EN    FR    IT 

 









Legend :    VFR   Marginal VFR   IFR   Intensive IFR   Very Intensive IFR
Visi :
Ceiling :
>= 8 km
>= 3000ft
5 to 8 km
1000 to 3000 ft
1500m to 5 km
500 to 1000 ft
800 to 1500m
200 to 500 ft
< 800m
< 200 ft
Symbols :   Thunderstorms  Fog  Heavy snow  Heavy precipitations  Wind > 20 kt






- Airport Elevation : 1291 ft


KTIK - Tinker Air Force Base

CURRENT METAR :
  • 271555Z COR AUTO 18006KT 7SM CLR 30/14 A2995 RMK AO2 RAB50 SLP133 P0000 T03010138 $ COR 1610

EXPIRED METARs :
  • 271455Z AUTO 16003KT 10SM CLR 29/15 A2993 RMK AO2 SLP126 T02860148 52018 $
  • 271355Z AUTO 17003KT 10SM CLR 27/16 A2991 RMK AO2 VIS 2 1/2 RWY13 SLP120 T02680158 $
  • 271255Z AUTO 00000KT 10SM CLR 22/17 A2989 RMK AO2 VIS 1 5/8 RWY13 SLP115 T02150171 $
  • 271155Z AUTO 00000KT 10SM CLR 19/15 A2988 RMK AO2 SLP112 T01900153 10232 20176 52024 $

TAF TAF KTIK
Valid from the 27 at 09:00 until the 28 at 15:00 UTC


270900Z 2709/2815 VRB06KT 9999 SKC QNH2985INS TX31/2722Z TN18/2712Z
KZFW FIR / North America



MET'MAP, your aeronautical weather chart ! - Copyright ORBIFLY December 2007 - Disclaimer

ORBIFLY MET'MAP TEAM :

Programming & Development : Alexandra Zaïnal
Original concept : Baudouin d'Aumeries
Technical & hardware support : Manuel Goepfert
Assistance : Marc-Olivier Méhu




SOURCES & CREDITS :

   NOAA       Earth
Advisory